Aviation Digital Data Service (ADDS)

Output produced by METARs form (1709 UTC 21 September 2019)
found at http://aviationweather.gov/metar/data/
 
KTYR 211702Z 19010KT 10SM SCT026 BKN037 29/21 A3012 RMK AO2 T02940211
KTYR 211653Z 17010KT 10SM BKN017 29/21 A3012 RMK AO2 SLP191 T02940211
KTYR 211248Z 2113/2212 16008KT P6SM BKN015 
     TEMPO 2113/2114 6SM BR BKN007 
     FM211600 17011KT P6SM SCT020 SCT030 
     FM211800 16013G20KT P6SM SCT040 SCT250 
     FM220000 14010KT P6SM SCT250